EDT,Max TemperatureF,Mean TemperatureF,Min TemperatureF,Max Dew PointF,MeanDew PointF,Min DewpointF,Max Humidity, Mean Humidity, Min Humidity, Max Sea Level PressureIn, Mean Sea Level PressureIn, Min Sea Level PressureIn, Max VisibilityMiles, Mean VisibilityMiles, Min VisibilityMiles, Max Wind SpeedMPH, Mean Wind SpeedMPH, Max Gust SpeedMPH,PrecipitationIn, CloudCover, Events, WindDirDegrees
2012-10-1,82,78,73,78,74,73,100,96,72,29.89,29.83,29.79,10,6,1,17,7,23,1.22,7,Rain-Thunderstorm,186
2012-10-2,84,78,73,76,74,72,100,93,76,30.08,29.96,29.88,10,8,2,20,8,25,0.73,5,Rain-Thunderstorm,207
2012-10-3,84,80,75,79,77,74,100,89,79,30.17,30.10,30.05,10,10,10,14,6,,0.05,1,Rain,117
2012-10-4,84,80,77,77,76,75,94,86,76,30.16,30.12,30.07,10,10,10,13,9,,0.00,2,Rain-Thunderstorm,85
2012-10-5,84,82,79,77,76,74,94,84,72,30.10,30.02,29.95,10,10,10,10,7,,0.00,2,,85
2012-10-6,84,78,73,76,75,73,100,89,72,29.98,29.93,29.87,10,9,2,15,6,21,0.41,4,Rain-Thunderstorm,94
2012-10-7,82,76,71,77,74,71,100,92,74,29.98,29.94,29.88,10,9,2,12,5,30,0.64,4,Rain-Thunderstorm,49
2012-10-8,82,78,73,79,76,74,100,91,82,30.03,29.97,29.92,10,10,6,9,5,,0.12,2,Rain-Thunderstorm,95
2012-10-9,84,78,73,77,75,73,100,90,74,30.03,29.99,29.96,10,7,0,13,4,,0.01,2,Fog-Rain,12
2012-10-10,84,78,73,76,74,70,100,88,74,30.07,30.03,29.99,10,10,3,16,6,18,0.07,3,Rain,31
2012-10-11,82,76,71,71,68,66,97,75,60,30.12,30.08,30.04,10,10,10,18,10,25,0.00,3,,22
2012-10-12,82,78,73,66,65,64,73,65,54,30.12,30.08,30.05,10,10,10,21,15,29,0.00,3,,25
2012-10-13,81,77,73,72,68,63,91,73,62,30.12,30.07,30.03,10,10,9,23,17,32,0.03,5,Rain,45
2012-10-14,82,80,77,76,74,70,90,83,74,30.04,29.98,29.94,10,10,8,21,16,31,0.00,5,,64
2012-10-15,84,78,75,75,73,72,94,83,69,29.94,29.86,29.80,10,10,10,14,11,,0.02,2,,53
2012-10-16,84,76,71,73,71,68,100,80,65,29.86,29.82,29.78,10,10,10,14,6,20,0.00,1,,24
2012-10-17,82,76,69,75,72,70,100,89,72,29.91,29.86,29.82,10,9,2,17,5,26,1.12,6,Rain,119
2012-10-18,84,80,75,77,74,72,94,86,69,29.89,29.85,29.82,10,10,10,14,7,,0.00,4,,154
2012-10-19,82,78,73,77,75,72,100,92,77,29.91,29.87,29.82,10,10,8,14,4,,0.00,3,Rain-Thunderstorm,191
2012-10-20,82,78,73,74,72,70,100,87,69,29.94,29.90,29.86,10,10,10,16,6,,0.00,1,,354
2012-10-21,82,76,70,72,65,60,97,72,52,30.01,29.96,29.91,10,10,10,15,7,22,0.00,2,,18
2012-10-22,82,77,73,67,64,62,71,65,56,30.03,29.99,29.96,10,10,10,18,13,28,0.00,3,,62
2012-10-23,82,78,73,72,67,62,87,70,58,29.99,29.96,29.93,10,10,10,20,15,28,0.00,3,,64
2012-10-24,84,78,75,77,72,67,100,80,60,29.96,29.90,29.86,10,10,10,24,19,32,0.16,5,Rain,64
2012-10-25,80,75,71,76,74,68,100,90,79,29.84,29.75,29.65,10,8,1,33,21,41,0.78,7,Rain,54
2012-10-26,79,74,69,75,71,66,100,92,66,29.62,29.54,29.48,10,8,2,31,21,44,0.33,7,Rain,333
2012-10-27,81,74,66,70,64,61,96,76,52,29.70,29.57,29.49,10,10,10,31,22,43,0.00,2,,294
2012-10-28,80,72,64,68,63,58,100,79,52,29.80,29.72,29.68,10,10,9,23,14,31,0.00,2,,289
2012-10-29,72,64,57,57,48,39,86,61,31,29.88,29.81,29.77,10,10,10,21,15,30,0.00,0,,293
2012-10-30,72,62,53,52,47,40,87,60,38,30.01,29.92,29.85,10,10,10,22,10,28,0.00,0,,287
2012-10-31,73,62,52,59,53,46,100,72,44,30.08,30.03,29.99,10,10,10,13,4,,0.00,0,,275